Time;durP1;ratioP1;P1;durP2;ratioP2;P2;SDS_P1;SDS_P2;PMS_P1;PMS_P2;Temp;Humidity;BMP_temperature;BMP_pressure;BME280_temperature;BME280_humidity;BME280_pressure;Samples;Min_cycle;Max_cycle;Signal;HPM_P1;HPM_P2
2022/11/24 00:01:53;;;;;;;11.90;8.97;;;5.50;99.90;;;;;;5051753;28;20636;-84
2022/11/24 00:04:19;;;;;;;16.30;12.23;;;5.70;99.90;;;;;;5044915;28;21299;-85
2022/11/24 00:06:46;;;;;;;16.13;9.90;;;5.80;99.90;;;;;;5050505;28;21247;-85
2022/11/24 00:09:13;;;;;;;13.20;10.33;;;5.30;99.90;;;;;;5042961;28;20619;-85
2022/11/24 00:11:42;;;;;;;17.00;8.30;;;5.70;99.90;;;;;;5044483;28;21137;-84
2022/11/24 00:14:09;;;;;;;12.30;5.93;;;5.60;99.90;;;;;;5036962;28;20630;-85
2022/11/24 00:16:38;;;;;;;10.87;6.90;;;5.70;99.90;;;;;;5040527;28;20643;-85
2022/11/24 00:19:08;;;;;;;8.93;4.83;;;5.90;99.90;;;;;;5043943;28;20714;-84
2022/11/24 00:21:36;;;;;;;10.67;4.10;;;5.90;99.90;;;;;;5050438;28;21215;-85
2022/11/24 00:24:03;;;;;;;10.03;4.40;;;5.80;99.90;;;;;;5044915;28;20979;-85
2022/11/24 00:26:31;;;;;;;7.73;3.57;;;6.30;99.90;;;;;;5042140;28;20638;-85
2022/11/24 00:29:01;;;;;;;7.77;4.10;;;6.40;99.90;;;;;;5038496;28;20683;-85
2022/11/24 00:31:30;;;;;;;10.57;4.37;;;6.40;99.90;;;;;;5033485;28;20650;-85
2022/11/24 00:33:58;;;;;;;10.77;3.57;;;6.40;99.90;;;;;;5039447;28;20642;-85
2022/11/24 00:36:31;;;;;;;11.70;4.93;;;6.40;99.90;;;;;;5045082;28;20633;-85
2022/11/24 00:39:00;;;;;;;7.77;4.37;;;6.50;99.90;;;;;;5042234;28;20634;-85
2022/11/24 00:41:28;;;;;;;10.40;4.33;;;6.30;99.90;;;;;;5046633;28;21240;-85
2022/11/24 00:43:55;;;;;;;9.60;4.03;;;6.60;99.90;;;;;;5050098;28;20665;-85
2022/11/24 00:46:24;;;;;;;7.70;3.37;;;6.20;99.90;;;;;;5048041;28;20638;-85
2022/11/24 00:48:52;;;;;;;10.07;4.40;;;6.60;99.90;;;;;;5034376;28;20627;-85
2022/11/24 00:51:20;;;;;;;14.07;4.47;;;6.60;99.90;;;;;;5034688;28;20682;-85
2022/11/24 00:53:47;;;;;;;9.07;3.33;;;6.80;99.90;;;;;;5034911;28;21000;-86
2022/11/24 00:56:14;;;;;;;9.90;4.27;;;6.10;99.90;;;;;;5035531;28;20631;-86
2022/11/24 00:58:41;;;;;;;6.93;3.37;;;6.30;99.90;;;;;;5039947;28;20631;-86
2022/11/24 01:01:11;;;;;;;7.70;3.00;;;6.90;99.90;;;;;;5038780;28;21277;-85
2022/11/24 01:03:39;;;;;;;10.57;3.20;;;6.70;99.90;;;;;;5042169;28;20657;-85
2022/11/24 01:06:08;;;;;;;9.37;4.23;;;6.60;99.90;;;;;;5043031;28;20634;-84
2022/11/24 01:08:37;;;;;;;7.60;3.40;;;7.00;99.90;;;;;;5032971;28;20627;-85
2022/11/24 01:11:12;;;;;;;12.10;4.43;;;6.70;99.90;;;;;;5034178;28;20677;-86
2022/11/24 01:13:40;;;;;;;8.10;3.87;;;6.70;99.90;;;;;;5039706;28;20630;-86
2022/11/24 01:16:13;;;;;;;10.13;3.43;;;7.00;99.90;;;;;;5040253;28;20637;-85
2022/11/24 01:18:41;;;;;;;7.80;3.07;;;7.10;99.90;;;;;;5042464;28;20632;-85
2022/11/24 01:21:08;;;;;;;13.00;3.80;;;6.80;99.90;;;;;;5046290;28;21274;-85
2022/11/24 01:23:35;;;;;;;12.40;3.43;;;6.80;99.90;;;;;;5047669;28;20658;-85
2022/11/24 01:26:05;;;;;;;7.83;3.70;;;6.60;99.90;;;;;;5036581;28;20646;-85
2022/11/24 01:28:32;;;;;;;10.33;4.00;;;6.80;99.90;;;;;;5035601;28;20679;-85
2022/11/24 01:30:58;;;;;;;6.63;3.17;;;6.80;99.90;;;;;;5035258;28;20669;-84
2022/11/24 01:33:25;;;;;;;9.87;3.70;;;6.70;99.90;;;;;;5035619;28;20633;-85
2022/11/24 01:35:54;;;;;;;6.53;3.13;;;6.50;99.90;;;;;;5039123;28;20632;-85
2022/11/24 01:38:21;;;;;;;8.80;3.37;;;6.70;99.90;;;;;;5036789;28;20721;-85
2022/11/24 01:40:49;;;;;;;7.43;3.10;;;6.80;99.90;;;;;;5037751;28;20665;-84
2022/11/24 01:43:17;;;;;;;8.20;3.57;;;6.60;99.90;;;;;;5036709;28;21168;-85
2022/11/24 01:45:46;;;;;;;9.40;3.27;;;6.60;99.90;;;;;;5043810;28;20635;-85
2022/11/24 01:48:19;;;;;;;7.20;3.43;;;6.80;99.90;;;;;;5036756;28;21524;-85
2022/11/24 01:50:48;;;;;;;8.67;3.43;;;6.70;99.90;;;;;;5035751;28;20647;-85
2022/11/24 01:53:16;;;;;;;8.40;3.10;;;6.90;99.90;;;;;;5040282;28;20623;-85
2022/11/24 01:55:43;;;;;;;7.90;3.60;;;6.60;99.90;;;;;;5045409;28;20630;-85
2022/11/24 01:58:14;;;;;;;10.20;3.57;;;6.60;99.90;;;;;;5045769;28;20722;-86
2022/11/24 02:00:43;;;;;;;8.10;3.17;;;6.40;99.90;;;;;;5040311;28;21273;-85
2022/11/24 02:03:13;;;;;;;6.43;3.00;;;6.90;99.90;;;;;;5037249;28;21168;-85
2022/11/24 02:05:45;;;;;;;10.03;3.00;;;6.70;99.90;;;;;;5032823;28;20631;-85
2022/11/24 02:08:21;;;;;;;8.77;3.80;;;6.90;99.90;;;;;;5043793;28;20630;-85
2022/11/24 02:10:48;;;;;;;10.10;4.73;;;6.80;99.90;;;;;;5051196;28;20656;-85
2022/11/24 02:13:28;;;;;;;13.33;3.30;;;6.70;99.90;;;;;;5043886;28;20627;-84
2022/11/24 02:15:55;;;;;;;13.53;3.70;;;6.80;99.90;;;;;;5067907;28;20689;-85
2022/11/24 02:18:22;;;;;;;5.43;2.60;;;6.90;99.90;;;;;;5066607;28;20626;-86
2022/11/24 02:20:49;;;;;;;8.50;3.43;;;7.00;99.90;;;;;;5065436;28;20630;-85
2022/11/24 02:23:22;;;;;;;4.83;2.30;;;7.10;99.90;;;;;;5062843;28;20611;-84
2022/11/24 02:25:57;;;;;;;9.73;2.83;;;6.60;99.90;;;;;;5051355;28;20614;-84
2022/11/24 02:28:28;;;;;;;5.83;1.93;;;7.10;99.90;;;;;;5040603;28;20625;-85
2022/11/24 02:30:55;;;;;;;9.83;3.20;;;7.20;99.90;;;;;;5048051;28;20656;-84
2022/11/24 02:33:24;;;;;;;7.63;4.20;;;7.00;99.90;;;;;;5039893;28;20633;-85
2022/11/24 02:35:50;;;;;;;7.93;2.80;;;6.80;99.90;;;;;;5038073;28;20633;-85
2022/11/24 02:38:17;;;;;;;5.67;2.90;;;6.90;99.90;;;;;;5047720;28;20626;-85
2022/11/24 02:40:47;;;;;;;7.27;2.40;;;7.10;99.90;;;;;;5045264;28;20643;-85
2022/11/24 02:43:16;;;;;;;7.60;2.80;;;7.00;99.90;;;;;;5040814;28;20814;-85
2022/11/24 02:45:44;;;;;;;7.83;2.70;;;7.00;99.90;;;;;;5042009;28;21247;-85
2022/11/24 02:48:11;;;;;;;6.20;2.80;;;6.90;99.90;;;;;;5038339;28;20629;-85
2022/11/24 02:50:38;;;;;;;7.00;2.50;;;6.30;99.90;;;;;;5038829;28;20655;-85
2022/11/24 02:53:05;;;;;;;9.23;2.77;;;6.70;99.90;;;;;;5047193;28;21000;-84
2022/11/24 02:55:31;;;;;;;9.07;2.80;;;6.90;99.90;;;;;;5035383;28;20626;-86
2022/11/24 02:57:58;;;;;;;5.60;2.80;;;6.70;99.90;;;;;;5041921;28;20632;-86
2022/11/24 03:00:25;;;;;;;7.17;2.73;;;6.80;99.90;;;;;;5034002;28;20647;-85
2022/11/24 03:02:53;;;;;;;6.10;2.60;;;6.80;99.90;;;;;;5041588;28;20713;-85
2022/11/24 03:05:21;;;;;;;6.47;1.93;;;6.20;99.90;;;;;;5036508;28;20665;-84
2022/11/24 03:07:48;;;;;;;6.33;1.90;;;6.80;99.90;;;;;;5045700;28;20662;-85
2022/11/24 03:10:15;;;;;;;6.77;2.50;;;6.60;99.90;;;;;;5039327;28;20662;-85
2022/11/24 03:12:42;;;;;;;6.57;2.47;;;6.40;99.90;;;;;;5041028;28;20630;-85
2022/11/24 03:15:09;;;;;;;7.30;2.23;;;6.00;99.90;;;;;;5037601;28;20636;-85
2022/11/24 03:17:36;;;;;;;4.57;1.83;;;6.10;99.90;;;;;;5033784;28;20629;-85
2022/11/24 03:20:05;;;;;;;6.37;2.10;;;6.30;99.90;;;;;;5035791;28;20665;-85
2022/11/24 03:22:31;;;;;;;10.67;3.30;;;6.20;99.90;;;;;;5041559;28;21001;-85
2022/11/24 03:24:58;;;;;;;4.87;2.00;;;6.00;99.90;;;;;;5034600;28;20666;-85
2022/11/24 03:27:25;;;;;;;7.00;2.80;;;5.80;99.90;;;;;;5034757;28;20983;-85
2022/11/24 03:29:52;;;;;;;5.17;1.80;;;5.90;99.90;;;;;;5038911;28;20741;-85
2022/11/24 03:32:19;;;;;;;6.00;2.33;;;5.80;99.90;;;;;;5041466;28;20641;-85
2022/11/24 03:34:46;;;;;;;4.73;2.30;;;5.80;99.90;;;;;;5040321;28;20623;-85
2022/11/24 03:37:14;;;;;;;9.47;2.83;;;5.80;99.90;;;;;;5046143;28;20628;-85
2022/11/24 03:39:40;;;;;;;5.70;2.00;;;5.70;99.90;;;;;;5027122;28;20700;-85
2022/11/24 03:42:07;;;;;;;4.60;2.10;;;5.70;99.90;;;;;;5032906;28;21156;-85
2022/11/24 03:44:34;;;;;;;9.90;2.37;;;5.70;99.90;;;;;;5045276;28;20662;-85
2022/11/24 03:47:01;;;;;;;5.23;2.50;;;5.60;99.90;;;;;;5040759;28;20632;-85
2022/11/24 03:49:28;;;;;;;5.10;2.20;;;5.60;99.90;;;;;;5042491;28;20640;-85
2022/11/24 03:51:54;;;;;;;7.67;2.60;;;5.50;99.90;;;;;;5036956;28;20637;-85
2022/11/24 03:54:23;;;;;;;14.90;2.37;;;5.70;99.90;;;;;;5042679;28;20713;-85
2022/11/24 03:56:49;;;;;;;11.23;2.83;;;5.70;99.90;;;;;;5044664;28;20627;-85
2022/11/24 03:59:18;;;;;;;4.90;2.00;;;5.30;99.90;;;;;;5048197;28;21000;-85
2022/11/24 04:01:45;;;;;;;4.63;1.83;;;5.10;99.90;;;;;;5042283;28;20644;-85
2022/11/24 04:04:12;;;;;;;8.03;2.20;;;5.30;99.90;;;;;;5037993;28;20669;-85
2022/11/24 04:06:39;;;;;;;6.90;2.70;;;5.90;99.90;;;;;;5036836;28;20623;-85
2022/11/24 04:09:07;;;;;;;5.67;2.60;;;5.80;99.90;;;;;;5030532;28;20629;-85
2022/11/24 04:14:19;;;;;;;8.77;3.07;;;5.60;99.90;;;;;;5035569;28;20618;-85
2022/11/24 04:16:47;;;;;;;10.40;2.60;;;5.80;99.90;;;;;;5031825;28;20635;-85
2022/11/24 04:19:13;;;;;;;6.67;3.40;;;5.80;99.90;;;;;;5046922;28;20626;-85
2022/11/24 04:21:40;;;;;;;4.20;2.50;;;5.70;99.90;;;;;;5029522;28;20646;-85
2022/11/24 04:24:07;;;;;;;7.87;3.07;;;5.80;99.90;;;;;;5044956;28;20622;-85
2022/11/24 04:26:35;;;;;;;6.40;3.80;;;5.60;99.90;;;;;;5046418;28;20632;-85
2022/11/24 04:29:02;;;;;;;8.43;3.17;;;5.60;99.90;;;;;;5039466;28;20650;-85
2022/11/24 04:31:29;;;;;;;4.23;2.83;;;5.50;99.90;;;;;;5039843;28;20658;-85
2022/11/24 04:33:55;;;;;;;6.27;3.17;;;5.50;99.90;;;;;;5042728;28;20640;-85
2022/11/24 04:36:22;;;;;;;2.73;2.07;;;5.70;99.90;;;;;;5041929;28;20622;-85
2022/11/24 04:38:51;;;;;;;6.77;2.67;;;5.40;99.90;;;;;;5040139;28;21005;-85
2022/11/24 04:41:18;;;;;;;9.30;3.30;;;5.50;99.90;;;;;;5033565;28;20643;-85
2022/11/24 04:43:48;;;;;;;5.50;2.90;;;5.70;99.90;;;;;;5040782;28;20630;-85
2022/11/24 04:46:15;;;;;;;8.30;3.00;;;5.40;99.90;;;;;;5034691;28;21255;-85
2022/11/24 04:48:42;;;;;;;5.57;3.00;;;5.50;99.90;;;;;;5027640;28;21171;-85
2022/11/24 04:51:10;;;;;;;6.10;3.33;;;5.60;99.90;;;;;;5039497;28;20664;-85
2022/11/24 04:53:37;;;;;;;5.77;2.83;;;5.40;99.90;;;;;;5030733;28;20654;-85
2022/11/24 04:56:05;;;;;;;8.93;3.43;;;5.50;99.90;;;;;;5030654;28;20626;-84
2022/11/24 04:58:32;;;;;;;8.10;3.10;;;5.80;99.90;;;;;;5038594;28;21149;-85
2022/11/24 05:01:00;;;;;;;7.47;2.57;;;5.80;99.90;;;;;;5038743;28;20634;-85
2022/11/24 05:03:26;;;;;;;9.50;6.17;;;5.60;99.90;;;;;;5030185;28;20764;-85
2022/11/24 05:05:53;;;;;;;5.57;3.50;;;5.70;99.90;;;;;;5043093;28;20661;-84
2022/11/24 05:08:20;;;;;;;6.83;3.23;;;5.50;99.90;;;;;;5042082;28;20643;-86
2022/11/24 05:10:47;;;;;;;5.40;2.77;;;5.50;99.90;;;;;;5045403;28;20645;-85
2022/11/24 05:13:14;;;;;;;11.27;3.50;;;5.50;99.90;;;;;;5046515;28;20653;-85
2022/11/24 05:15:41;;;;;;;6.30;2.90;;;5.50;99.90;;;;;;5040895;28;20622;-85
2022/11/24 05:18:14;;;;;;;10.57;4.13;;;5.50;99.90;;;;;;5037579;28;21655;-84
2022/11/24 05:20:43;;;;;;;4.00;2.30;;;5.10;99.90;;;;;;5043914;28;20656;-85
2022/11/24 05:23:13;;;;;;;5.67;3.00;;;5.20;99.90;;;;;;5045148;28;20680;-84
2022/11/24 05:25:39;;;;;;;7.93;2.90;;;5.40;99.90;;;;;;5043842;28;20659;-85
2022/11/24 05:28:09;;;;;;;7.43;2.67;;;5.30;99.90;;;;;;5036778;28;20626;-86
2022/11/24 05:30:38;;;;;;;5.30;2.50;;;5.20;99.90;;;;;;5041759;28;20611;-84
2022/11/24 05:33:06;;;;;;;7.33;3.10;;;5.30;99.90;;;;;;5048511;28;20679;-85
2022/11/24 05:35:35;;;;;;;8.40;2.80;;;5.30;99.90;;;;;;5038660;28;20621;-86
2022/11/24 05:38:02;;;;;;;5.73;2.47;;;5.30;99.90;;;;;;5043776;28;20625;-85
2022/11/24 05:40:29;;;;;;;8.83;2.83;;;5.20;99.90;;;;;;5066487;28;20614;-85
2022/11/24 05:42:56;;;;;;;4.40;2.73;;;5.20;99.90;;;;;;5063412;28;20626;-85
2022/11/24 05:45:24;;;;;;;8.13;3.30;;;4.90;99.90;;;;;;5033498;28;20659;-85
2022/11/24 05:47:52;;;;;;;7.43;2.47;;;5.00;99.90;;;;;;5034253;28;20662;-85
2022/11/24 05:50:20;;;;;;;7.13;2.80;;;4.90;99.90;;;;;;5040910;28;20650;-85
2022/11/24 05:52:49;;;;;;;4.33;2.20;;;5.10;99.90;;;;;;5043986;28;20637;-85
2022/11/24 05:55:18;;;;;;;6.33;2.50;;;4.40;99.90;;;;;;5040802;28;20637;-85
2022/11/24 05:57:45;;;;;;;6.13;2.67;;;4.80;99.90;;;;;;5045472;28;20731;-84
2022/11/24 06:00:13;;;;;;;5.80;2.50;;;4.70;99.90;;;;;;5041354;28;20647;-84
2022/11/24 06:02:40;;;;;;;8.80;3.60;;;4.70;99.90;;;;;;5038326;28;20630;-84
2022/11/24 06:05:08;;;;;;;9.07;2.80;;;4.30;99.90;;;;;;5037297;28;21495;-85
2022/11/24 06:07:34;;;;;;;8.33;2.60;;;4.90;99.90;;;;;;5046874;28;20631;-85
2022/11/24 06:10:03;;;;;;;4.77;2.60;;;4.70;99.90;;;;;;5036375;28;21242;-85
2022/11/24 06:12:30;;;;;;;11.30;2.63;;;4.80;99.90;;;;;;5039743;28;20742;-86
2022/11/24 06:14:56;;;;;;;8.43;2.50;;;4.90;99.90;;;;;;5043334;28;20633;-85
2022/11/24 06:17:24;;;;;;;6.37;2.40;;;4.50;99.90;;;;;;5028623;28;20635;-86
2022/11/24 06:19:50;;;;;;;6.63;2.43;;;5.00;99.90;;;;;;5041490;28;21013;-86
2022/11/24 06:22:20;;;;;;;10.60;3.10;;;4.90;99.90;;;;;;5039557;28;20630;-86
2022/11/24 06:24:49;;;;;;;5.67;2.50;;;5.10;99.90;;;;;;5041917;28;20627;-85
2022/11/24 06:27:17;;;;;;;7.43;3.00;;;4.50;99.90;;;;;;5038484;28;20641;-86
2022/11/24 06:29:44;;;;;;;7.50;2.33;;;5.10;99.90;;;;;;5034657;28;21362;-86
2022/11/24 06:32:11;;;;;;;10.80;3.27;;;5.20;99.90;;;;;;5038500;28;20622;-85
2022/11/24 06:34:38;;;;;;;9.57;3.40;;;5.10;99.90;;;;;;5028948;28;20647;-86
2022/11/24 06:37:05;;;;;;;9.27;4.20;;;5.00;99.90;;;;;;5045406;28;20632;-86
2022/11/24 06:39:31;;;;;;;7.57;3.47;;;5.40;99.90;;;;;;5035675;28;20654;-86
2022/11/24 06:41:58;;;;;;;9.53;3.87;;;5.10;99.90;;;;;;5039962;28;20654;-85
2022/11/24 06:44:27;;;;;;;11.87;3.40;;;5.60;99.90;;;;;;5037403;28;20721;-84
2022/11/24 06:46:54;;;;;;;4.57;2.67;;;5.40;99.90;;;;;;5034925;28;20678;-85
2022/11/24 06:49:21;;;;;;;6.97;3.10;;;5.10;99.90;;;;;;5036722;28;20653;-84
2022/11/24 06:51:48;;;;;;;6.23;2.73;;;5.20;99.90;;;;;;5036315;28;20627;-86
2022/11/24 06:54:16;;;;;;;10.37;3.70;;;5.50;99.90;;;;;;5030416;28;21316;-85
2022/11/24 06:56:43;;;;;;;11.70;5.03;;;5.70;99.90;;;;;;5034621;28;20695;-85
2022/11/24 06:59:16;;;;;;;8.33;3.93;;;5.60;99.90;;;;;;5039178;28;21229;-85
2022/11/24 07:01:45;;;;;;;6.70;3.53;;;5.70;99.90;;;;;;5026457;28;20644;-85
2022/11/24 07:04:12;;;;;;;6.83;3.70;;;5.80;99.90;;;;;;5041745;28;20634;-85
2022/11/24 07:06:40;;;;;;;10.10;3.43;;;5.30;99.90;;;;;;5044407;28;20681;-85
2022/11/24 07:09:08;;;;;;;7.43;3.10;;;5.90;99.90;;;;;;5032571;28;20729;-85
2022/11/24 07:11:35;;;;;;;9.57;3.47;;;5.90;99.90;;;;;;5030142;28;20636;-85
2022/11/24 07:14:02;;;;;;;9.80;3.03;;;6.10;99.90;;;;;;5034401;28;20628;-85
2022/11/24 07:16:29;;;;;;;6.33;2.83;;;5.90;99.90;;;;;;5033214;28;20668;-85
2022/11/24 07:18:57;;;;;;;7.30;2.53;;;6.10;99.90;;;;;;5044195;28;20630;-85
2022/11/24 07:21:25;;;;;;;9.37;4.30;;;5.90;99.90;;;;;;5040104;28;20626;-86
2022/11/24 07:23:54;;;;;;;10.67;4.17;;;5.90;99.90;;;;;;5039720;28;20656;-85
2022/11/24 07:26:21;;;;;;;8.00;4.10;;;6.30;99.90;;;;;;5039108;28;20677;-85
2022/11/24 07:28:48;;;;;;;8.23;4.30;;;6.40;99.90;;;;;;5046845;28;20628;-85
2022/11/24 07:31:17;;;;;;;10.30;5.03;;;6.40;99.90;;;;;;5039079;28;20622;-85
2022/11/24 07:33:48;;;;;;;7.90;4.57;;;6.30;99.90;;;;;;5037667;28;20993;-85
2022/11/24 07:36:16;;;;;;;8.10;3.93;;;6.40;99.90;;;;;;5042458;28;20651;-85
2022/11/24 07:38:43;;;;;;;9.90;4.40;;;6.40;99.90;;;;;;5037309;28;20646;-85
2022/11/24 07:41:11;;;;;;;9.30;4.20;;;6.50;99.90;;;;;;5040292;28;20639;-85
2022/11/24 07:43:38;;;;;;;7.20;4.57;;;6.10;99.90;;;;;;5034552;28;20625;-85
2022/11/24 07:46:07;;;;;;;9.83;4.13;;;6.60;99.90;;;;;;5041964;28;20674;-85
2022/11/24 07:48:34;;;;;;;12.33;6.20;;;6.60;99.90;;;;;;5032803;28;20637;-86
2022/11/24 07:51:01;;;;;;;7.63;4.83;;;6.80;99.90;;;;;;5032271;28;20641;-85
2022/11/24 07:53:30;;;;;;;9.63;4.50;;;6.70;99.90;;;;;;5031263;28;20642;-85
2022/11/24 07:55:59;;;;;;;13.87;5.40;;;6.80;99.90;;;;;;5034167;28;20994;-85
2022/11/24 07:58:27;;;;;;;7.03;3.97;;;6.90;99.90;;;;;;5042209;28;20645;-85
2022/11/24 08:00:54;;;;;;;15.07;4.67;;;6.90;99.90;;;;;;5034893;28;20622;-85
2022/11/24 08:03:21;;;;;;;9.00;4.40;;;6.60;99.90;;;;;;5038204;28;21224;-85
2022/11/24 08:05:53;;;;;;;11.47;4.33;;;6.50;99.90;;;;;;5041259;28;20681;-85
2022/11/24 08:08:20;;;;;;;9.43;4.40;;;7.10;99.90;;;;;;5043782;28;20630;-85
2022/11/24 08:10:48;;;;;;;10.83;4.20;;;6.70;99.90;;;;;;5038309;28;20630;-85
2022/11/24 08:13:15;;;;;;;9.70;4.30;;;7.10;99.90;;;;;;5040584;28;20645;-85
2022/11/24 08:15:42;;;;;;;14.50;4.40;;;7.00;99.90;;;;;;5043970;28;21096;-84
2022/11/24 08:18:10;;;;;;;16.03;6.13;;;7.10;99.90;;;;;;5043662;28;20644;-85
2022/11/24 08:20:37;;;;;;;10.70;4.50;;;7.10;99.90;;;;;;5040491;28;20721;-86
2022/11/24 08:23:04;;;;;;;10.83;4.60;;;7.00;99.90;;;;;;5040942;28;20634;-85
2022/11/24 08:25:31;;;;;;;12.73;4.57;;;7.10;99.90;;;;;;5032120;28;21221;-85
2022/11/24 08:28:00;;;;;;;17.03;7.50;;;7.30;99.90;;;;;;5046319;28;20665;-85
2022/11/24 08:30:27;;;;;;;15.10;7.60;;;7.20;99.90;;;;;;5035760;28;20628;-85
2022/11/24 08:32:54;;;;;;;13.87;8.23;;;7.30;99.90;;;;;;5041341;28;20628;-85
2022/11/24 08:35:21;;;;;;;11.03;4.17;;;7.00;99.90;;;;;;5031554;28;20654;-84
2022/11/24 08:37:48;;;;;;;8.40;4.60;;;7.30;99.90;;;;;;5043030;28;20986;-85
2022/11/24 08:40:16;;;;;;;11.47;4.87;;;7.20;99.90;;;;;;5040840;28;20656;-85
2022/11/24 08:42:42;;;;;;;8.30;4.00;;;7.50;99.90;;;;;;5043823;28;20638;-85
2022/11/24 08:45:11;;;;;;;8.33;5.10;;;7.30;99.90;;;;;;5047836;28;20634;-85
2022/11/24 08:47:38;;;;;;;11.10;6.00;;;7.50;99.90;;;;;;5047115;28;21036;-85
2022/11/24 08:50:06;;;;;;;11.90;5.23;;;7.40;99.90;;;;;;5062663;28;20687;-85
2022/11/24 08:52:33;;;;;;;14.97;5.40;;;7.40;99.90;;;;;;5067674;28;20622;-84
2022/11/24 08:55:00;;;;;;;13.90;4.70;;;6.90;99.90;;;;;;5068331;28;20678;-84
2022/11/24 08:57:26;;;;;;;9.80;4.67;;;7.10;99.90;;;;;;5065212;28;20633;-85
2022/11/24 08:59:53;;;;;;;11.10;4.60;;;7.00;99.90;;;;;;5044804;28;20657;-85
2022/11/24 09:02:21;;;;;;;19.40;6.83;;;7.30;99.90;;;;;;5039992;28;20636;-85
2022/11/24 09:04:48;;;;;;;9.83;5.10;;;7.40;99.90;;;;;;5034061;28;21224;-85
2022/11/24 09:07:15;;;;;;;14.33;5.07;;;7.40;99.90;;;;;;5034547;28;21065;-85
2022/11/24 09:09:41;;;;;;;13.97;4.57;;;7.30;99.90;;;;;;5039199;28;20653;-85
2022/11/24 09:12:09;;;;;;;14.57;6.00;;;7.30;99.90;;;;;;5042780;28;21164;-85
2022/11/24 09:14:36;;;;;;;10.53;6.50;;;7.40;99.90;;;;;;5036628;28;21165;-85
2022/11/24 09:17:02;;;;;;;13.40;5.27;;;7.00;99.90;;;;;;5044911;28;20637;-85
2022/11/24 09:19:30;;;;;;;15.13;6.03;;;7.10;99.90;;;;;;5045083;28;20979;-85
2022/11/24 09:21:57;;;;;;;10.87;7.40;;;7.90;99.90;;;;;;5039310;28;21217;-85
2022/11/24 09:24:28;;;;;;;13.50;6.80;;;7.80;99.90;;;;;;5032977;28;20634;-85
2022/11/24 09:26:55;;;;;;;12.00;7.77;;;7.80;99.90;;;;;;5033449;28;21014;-85
2022/11/24 09:29:22;;;;;;;16.67;8.13;;;7.40;99.90;;;;;;5033811;28;21244;-85
2022/11/24 09:31:49;;;;;;;12.63;7.60;;;8.00;99.90;;;;;;5042118;28;20665;-85
2022/11/24 09:34:16;;;;;;;10.40;6.50;;;8.00;99.90;;;;;;5036894;28;20645;-85
2022/11/24 09:36:44;;;;;;;6.60;3.40;;;7.70;99.90;;;;;;5036627;28;20634;-85
2022/11/24 09:39:11;;;;;;;12.03;5.33;;;8.30;99.90;;;;;;5036418;28;20629;-85
2022/11/24 09:41:55;;;;;;;9.20;4.70;;;8.10;99.90;;;;;;5039172;28;20716;-86
2022/11/24 09:44:44;;;;;;;11.90;4.90;;;8.50;99.90;;;;;;5029944;28;21224;-85
2022/11/24 09:47:18;;;;;;;10.43;5.13;;;8.60;99.90;;;;;;5040149;28;20663;-85
2022/11/24 09:49:50;;;;;;;15.43;5.20;;;8.60;99.90;;;;;;5038467;28;20626;-85
2022/11/24 09:52:22;;;;;;;8.30;4.20;;;8.20;99.90;;;;;;5035582;28;20998;-85
2022/11/24 09:54:55;;;;;;;4.50;3.40;;;8.30;99.90;;;;;;5032342;28;20618;-86
2022/11/24 09:57:25;;;;;;;9.43;3.10;;;8.30;99.90;;;;;;5042857;28;20610;-85
2022/11/24 09:59:52;;;;;;;7.37;3.37;;;8.20;99.90;;;;;;5040558;28;20665;-85
2022/11/24 10:02:19;;;;;;;5.67;3.37;;;8.00;99.90;;;;;;5041997;28;20740;-85
2022/11/24 10:04:47;;;;;;;2.70;1.83;;;8.40;99.90;;;;;;5029145;28;20633;-85
2022/11/24 10:07:26;;;;;;;4.07;2.20;;;8.40;99.90;;;;;;5034223;28;21237;-85
2022/11/24 10:10:00;;;;;;;2.07;1.13;;;8.60;99.90;;;;;;5041329;28;20649;-85
2022/11/24 10:12:40;;;;;;;4.47;1.30;;;8.60;99.90;;;;;;5030291;28;20625;-85
2022/11/24 10:15:36;;;;;;;4.53;1.10;;;9.00;99.90;;;;;;5044407;28;20668;-85
2022/11/24 10:18:28;;;;;;;2.33;1.30;;;8.70;99.90;;;;;;5038908;28;20614;-85
2022/11/24 10:21:04;;;;;;;1.50;1.20;;;8.50;99.90;;;;;;5038777;28;20652;-85
2022/11/24 10:23:47;;;;;;;1.87;1.17;;;9.00;99.90;;;;;;5041237;28;20637;-85
2022/11/24 10:26:19;;;;;;;3.50;0.90;;;9.10;99.90;;;;;;5041497;28;21260;-85
2022/11/24 10:28:52;;;;;;;3.33;1.60;;;9.50;99.90;;;;;;5040258;28;20625;-86
2022/11/24 10:31:24;;;;;;;2.53;1.67;;;10.10;99.90;;;;;;5042098;28;20657;-85
2022/11/24 10:33:51;;;;;;;1.23;1.10;;;9.90;99.90;;;;;;5038860;28;20622;-86
2022/11/24 10:36:25;;;;;;;1.87;1.10;;;9.90;99.90;;;;;;5035934;28;21195;-86
2022/11/24 10:39:02;;;;;;;3.30;2.23;;;10.00;99.90;;;;;;5035949;28;20629;-86
2022/11/24 10:41:42;;;;;;;2.60;1.50;;;9.80;99.90;;;;;;5038340;28;20679;-86
2022/11/24 10:44:13;;;;;;;1.40;0.90;;;9.20;99.90;;;;;;5046172;28;20633;-85
2022/11/24 10:46:40;;;;;;;2.53;1.07;;;9.30;99.90;;;;;;5037716;28;21250;-85
2022/11/24 10:49:13;;;;;;;1.00;0.70;;;9.60;99.90;;;;;;5037891;28;21224;-85
2022/11/24 10:51:48;;;;;;;3.90;0.93;;;9.60;99.90;;;;;;5040663;28;20646;-85
2022/11/24 10:54:19;;;;;;;1.17;0.83;;;9.20;99.90;;;;;;5041166;28;20630;-86
2022/11/24 10:56:47;;;;;;;1.57;1.00;;;9.20;99.90;;;;;;5038271;28;20625;-86
2022/11/24 10:59:35;;;;;;;0.70;0.70;;;9.40;99.90;;;;;;5035330;28;20628;-86
2022/11/24 11:02:17;;;;;;;1.07;0.90;;;10.20;99.90;;;;;;5041820;28;20703;-85
2022/11/24 11:04:43;;;;;;;1.10;1.00;;;10.00;99.90;;;;;;5029416;28;21207;-85
2022/11/24 11:07:17;;;;;;;2.13;1.07;;;12.10;1.00;;;;;;5032801;28;20676;-85
2022/11/24 11:09:46;;;;;;;2.30;0.70;;;13.00;99.90;;;;;;5034854;28;20687;-85
2022/11/24 11:12:22;;;;;;;1.93;0.90;;;12.00;1.00;;;;;;5035534;28;20985;-85
2022/11/24 11:14:50;;;;;;;1.13;0.63;;;11.00;1.00;;;;;;5033750;28;20631;-85
2022/11/24 11:17:33;;;;;;;1.27;0.50;;;11.10;28.40;;;;;;5040116;28;20622;-85
2022/11/24 11:20:04;;;;;;;1.10;0.70;;;10.10;99.90;;;;;;5033846;28;20661;-85
2022/11/24 11:22:32;;;;;;;0.90;0.70;;;10.40;99.90;;;;;;5040095;28;21061;-85
2022/11/24 11:25:16;;;;;;;0.80;0.80;;;10.20;99.90;;;;;;5034697;28;20970;-86
2022/11/24 11:27:43;;;;;;;0.97;0.60;;;10.60;99.90;;;;;;5037626;28;20662;-86
2022/11/24 11:30:23;;;;;;;1.63;0.87;;;10.30;99.90;;;;;;5037397;28;20688;-86
2022/11/24 11:32:56;;;;;;;2.73;0.70;;;11.60;99.90;;;;;;5040703;28;20634;-84
2022/11/24 11:35:25;;;;;;;0.80;0.80;;;14.50;99.90;;;;;;5031942;28;20626;-85
2022/11/24 11:37:54;;;;;;;1.37;0.80;;;16.70;94.80;;;;;;5033899;28;20642;-85
2022/11/24 11:40:26;;;;;;;1.13;0.67;;;17.10;99.90;;;;;;5036749;28;20653;-85
2022/11/24 11:43:00;;;;;;;0.90;0.90;;;16.60;99.90;;;;;;5044752;28;20658;-85
2022/11/24 11:45:30;;;;;;;1.27;0.70;;;17.10;99.90;;;;;;5051063;28;20634;-85
2022/11/24 11:48:07;;;;;;;1.00;0.50;;;15.70;1.00;;;;;;5041299;28;21259;-85
2022/11/24 11:50:41;;;;;;;4.67;0.80;;;14.30;1.00;;;;;;5041742;28;20654;-85
2022/11/24 11:53:16;;;;;;;4.17;2.63;;;13.00;1.00;;;;;;5039917;28;20629;-85
2022/11/24 11:55:59;;;;;;;1.00;0.80;;;11.60;1.00;;;;;;5033475;28;20623;-85
2022/11/24 11:58:50;;;;;;;1.87;0.87;;;11.40;1.00;;;;;;5041053;28;20664;-85
2022/11/24 12:01:53;;;;;;;2.67;0.73;;;11.20;1.00;;;;;;5039525;28;20687;-85
2022/11/24 12:04:41;;;;;;;1.40;1.10;;;11.20;1.00;;;;;;5036893;28;20636;-85
2022/11/24 12:07:38;;;;;;;6.87;6.27;;;11.00;1.00;;;;;;5044862;28;20670;-86
2022/11/24 12:10:15;;;;;;;2.40;1.63;;;11.10;1.00;;;;;;5044349;28;20669;-86
2022/11/24 12:12:59;;;;;;;2.47;1.57;;;10.50;1.00;;;;;;5039039;28;20636;-86
2022/11/24 12:15:34;;;;;;;1.87;1.63;;;10.80;1.00;;;;;;5039386;28;20633;-86
2022/11/24 12:18:13;;;;;;;3.90;1.77;;;10.80;1.00;;;;;;5042579;28;20621;-86
2022/11/24 12:20:53;;;;;;;3.07;1.30;;;10.40;1.00;;;;;;5039952;28;20665;-86
2022/11/24 12:23:31;;;;;;;3.00;1.23;;;10.30;1.00;;;;;;5041163;28;20618;-86
2022/11/24 12:26:06;;;;;;;3.90;2.10;;;10.40;1.00;;;;;;5045583;28;20644;-86
2022/11/24 12:28:43;;;;;;;2.13;1.00;;;11.00;1.00;;;;;;5032373;28;20704;-86
2022/11/24 12:31:24;;;;;;;1.33;1.23;;;11.30;1.00;;;;;;5038945;28;20665;-86
2022/11/24 12:34:25;;;;;;;1.13;0.97;;;13.80;1.00;;;;;;5041344;28;20633;-86
2022/11/24 12:37:05;;;;;;;3.00;1.47;;;16.60;27.80;;;;;;5037445;28;20939;-87
2022/11/24 12:39:38;;;;;;;1.60;1.00;;;18.00;99.90;;;;;;5041130;28;21009;-87
2022/11/24 12:42:10;;;;;;;1.20;0.90;;;17.90;99.90;;;;;;5031906;28;21179;-88
2022/11/24 12:45:00;;;;;;;1.87;0.83;;;16.70;1.00;;;;;;5040262;28;20636;-87
2022/11/24 12:47:37;;;;;;;1.80;1.70;;;16.40;1.00;;;;;;5039811;28;20783;-86
2022/11/24 12:50:10;;;;;;;2.33;1.30;;;14.10;1.00;;;;;;5037280;28;20654;-85
2022/11/24 12:52:44;;;;;;;3.70;1.00;;;13.80;99.90;;;;;;5034628;28;20630;-86
2022/11/24 12:55:18;;;;;;;3.40;0.87;;;13.50;99.90;;;;;;5034426;28;20658;-86
2022/11/24 12:57:51;;;;;;;3.00;1.10;;;13.70;99.90;;;;;;5045777;28;21180;-86
2022/11/24 13:00:23;;;;;;;4.03;1.07;;;14.00;1.00;;;;;;5038959;28;20654;-87
2022/11/24 13:03:15;;;;;;;4.50;1.20;;;14.00;99.90;;;;;;5043399;28;20629;-86
2022/11/24 13:05:51;;;;;;;3.10;1.10;;;13.80;1.00;;;;;;5038535;28;20634;-86
2022/11/24 13:08:18;;;;;;;3.70;1.77;;;14.30;99.90;;;;;;5039641;28;20677;-86
2022/11/24 13:10:46;;;;;;;3.10;1.30;;;15.50;99.90;;;;;;5051517;28;20633;-86